createdAt,value
2023-11-18T00:00:56.482Z,13.70
2023-11-18T00:03:23.127Z,16.57
2023-11-18T00:05:49.674Z,15.85
2023-11-18T00:08:16.164Z,14.75
2023-11-18T00:10:42.596Z,21.80
2023-11-18T00:13:09.987Z,13.90
2023-11-18T00:15:37.028Z,15.30
2023-11-18T00:18:03.702Z,17.08
2023-11-18T00:20:32.024Z,13.80
2023-11-18T00:22:58.917Z,15.13
2023-11-18T00:25:25.502Z,17.17
2023-11-18T00:27:51.968Z,18.77
2023-11-18T00:30:18.642Z,17.17
2023-11-18T00:32:45.432Z,21.45
2023-11-18T00:35:12.180Z,20.77
2023-11-18T00:37:38.619Z,16.20
2023-11-18T00:40:05.756Z,24.17
2023-11-18T00:42:32.247Z,15.60
2023-11-18T00:44:58.774Z,30.77
2023-11-18T00:47:25.319Z,18.17
2023-11-18T00:49:53.711Z,21.33
2023-11-18T00:52:20.457Z,17.10
2023-11-18T00:54:46.948Z,18.50
2023-11-18T00:57:13.485Z,12.02
2023-11-18T00:59:43.922Z,11.57
2023-11-18T01:02:10.475Z,17.35
2023-11-18T01:04:36.976Z,10.70
2023-11-18T01:07:03.876Z,13.75
2023-11-18T01:09:30.345Z,13.68
2023-11-18T01:12:07.767Z,13.95
2023-11-18T01:14:35.703Z,14.27
2023-11-18T01:17:02.364Z,14.73
2023-11-18T01:19:29.480Z,15.38
2023-11-18T01:21:56.701Z,12.23
2023-11-18T01:24:23.225Z,10.73
2023-11-18T01:26:49.775Z,9.38
2023-11-18T01:29:16.345Z,10.37
2023-11-18T01:31:50.412Z,10.43
2023-11-18T01:34:22.630Z,11.20
2023-11-18T01:36:52.913Z,11.25
2023-11-18T01:39:19.629Z,14.45
2023-11-18T01:41:46.741Z,16.47
2023-11-18T01:44:16.287Z,17.40
2023-11-18T01:46:46.161Z,15.35
2023-11-18T01:49:16.807Z,18.52
2023-11-18T01:51:46.504Z,14.25
2023-11-18T01:54:16.623Z,15.23
2023-11-18T01:56:45.649Z,22.45
2023-11-18T01:59:18.998Z,15.57
2023-11-18T02:01:55.317Z,16.77
2023-11-18T02:04:22.774Z,14.07
2023-11-18T02:06:50.335Z,19.23
2023-11-18T02:09:25.077Z,16.40
2023-11-18T02:12:10.859Z,18.65
2023-11-18T02:14:40.795Z,19.48
2023-11-18T02:17:11.588Z,16.92
2023-11-18T02:19:40.537Z,18.03
2023-11-18T02:22:08.522Z,18.73
2023-11-18T02:24:38.095Z,17.77
2023-11-18T02:27:12.551Z,22.45
2023-11-18T02:29:46.207Z,22.13
2023-11-18T02:32:18.719Z,16.33
2023-11-18T02:35:06.845Z,18.65
2023-11-18T02:37:34.293Z,18.40
2023-11-18T02:40:15.741Z,19.10
2023-11-18T02:42:45.070Z,17.27
2023-11-18T02:45:17.894Z,18.57
2023-11-18T02:47:46.169Z,19.85
2023-11-18T02:50:14.632Z,20.40
2023-11-18T02:52:41.485Z,22.70
2023-11-18T02:55:09.553Z,20.80
2023-11-18T02:57:37.511Z,20.80
2023-11-18T03:00:12.491Z,20.75
2023-11-18T03:02:40.535Z,21.95
2023-11-18T03:05:08.765Z,22.02
2023-11-18T03:07:35.382Z,23.48
2023-11-18T03:10:01.919Z,23.97
2023-11-18T03:12:29.199Z,27.70
2023-11-18T03:14:56.262Z,23.15
2023-11-18T03:17:22.974Z,20.38
2023-11-18T03:19:51.483Z,22.77
2023-11-18T03:22:18.055Z,18.73
2023-11-18T03:24:44.518Z,29.70
2023-11-18T03:27:10.941Z,26.10
2023-11-18T03:29:37.360Z,21.38
2023-11-18T03:32:06.304Z,21.55
2023-11-18T03:34:33.463Z,22.70
2023-11-18T03:37:00.316Z,22.17
2023-11-18T03:39:28.423Z,23.17
2023-11-18T03:41:55.055Z,24.17
2023-11-18T03:44:21.577Z,22.75
2023-11-18T03:46:48.089Z,26.03
2023-11-18T03:49:14.681Z,22.83
2023-11-18T03:51:41.198Z,24.25
2023-11-18T03:54:09.707Z,21.38
2023-11-18T03:56:36.262Z,21.02
2023-11-18T03:59:05.338Z,19.63
2023-11-18T04:01:33.628Z,23.27
2023-11-18T04:04:00.421Z,22.23
2023-11-18T04:06:26.915Z,21.90
2023-11-18T04:08:53.528Z,21.50
2023-11-18T04:11:19.992Z,19.33
2023-11-18T04:13:46.455Z,22.23
2023-11-18T04:16:16.990Z,22.55
2023-11-18T04:18:44.693Z,26.27
2023-11-18T04:21:11.976Z,23.02
2023-11-18T04:23:43.351Z,22.63
2023-11-18T04:26:10.935Z,20.83
2023-11-18T04:28:37.874Z,20.13
2023-11-18T04:31:06.250Z,20.40
2023-11-18T04:33:33.483Z,19.95
2023-11-18T04:36:00.401Z,22.47
2023-11-18T04:38:27.708Z,20.77
2023-11-18T04:40:55.399Z,21.08
2023-11-18T04:43:31.076Z,21.30
2023-11-18T04:46:07.049Z,20.40
2023-11-18T04:48:34.287Z,18.73
2023-11-18T04:51:01.518Z,18.83
2023-11-18T04:53:27.984Z,21.88
2023-11-18T04:55:54.566Z,20.88
2023-11-18T04:58:21.937Z,20.88
2023-11-18T05:00:49.253Z,21.73
2023-11-18T05:03:17.774Z,21.33
2023-11-18T05:05:44.784Z,19.60
2023-11-18T05:08:21.692Z,19.83
2023-11-18T05:10:49.648Z,22.92
2023-11-18T05:13:17.578Z,20.47
2023-11-18T05:15:46.303Z,23.95
2023-11-18T05:18:15.835Z,21.20
2023-11-18T05:20:43.305Z,19.90
2023-11-18T05:23:12.993Z,27.77
2023-11-18T05:25:46.969Z,21.27
2023-11-18T05:28:14.547Z,23.42
2023-11-18T05:30:44.230Z,19.70
2023-11-18T05:33:16.031Z,19.08
2023-11-18T05:35:49.622Z,22.08
2023-11-18T05:38:19.496Z,24.80
2023-11-18T05:40:56.840Z,21.95
2023-11-18T05:43:26.916Z,25.25
2023-11-18T05:46:12.045Z,22.25
2023-11-18T05:48:38.775Z,20.85
2023-11-18T05:51:10.940Z,23.43
2023-11-18T05:53:42.532Z,22.88
2023-11-18T05:56:09.284Z,19.48
2023-11-18T05:58:35.810Z,21.55
2023-11-18T06:01:03.355Z,22.65
2023-11-18T06:03:29.957Z,18.87
2023-11-18T06:05:57.243Z,20.85
2023-11-18T06:08:24.071Z,18.48
2023-11-18T06:10:52.868Z,18.73
2023-11-18T06:13:19.391Z,20.00
2023-11-18T06:15:45.843Z,19.43
2023-11-18T06:18:12.337Z,19.85
2023-11-18T06:20:39.445Z,19.23
2023-11-18T06:23:06.148Z,17.85
2023-11-18T06:25:32.833Z,17.38
2023-11-18T06:27:59.354Z,21.20
2023-11-18T06:30:27.157Z,18.65
2023-11-18T06:32:53.780Z,16.33
2023-11-18T06:35:22.526Z,15.85
2023-11-18T06:37:49.042Z,17.45
2023-11-18T06:40:19.951Z,16.30
2023-11-18T06:42:48.377Z,15.00
2023-11-18T06:45:16.115Z,22.35
2023-11-18T06:47:45.719Z,16.83
2023-11-18T06:50:15.425Z,17.17
2023-11-18T06:52:47.732Z,15.73
2023-11-18T06:55:16.361Z,18.02
2023-11-18T06:57:44.278Z,18.98
2023-11-18T07:00:15.002Z,18.05
2023-11-18T07:02:41.532Z,16.58
2023-11-18T07:05:08.349Z,15.00
2023-11-18T07:07:34.883Z,18.75
2023-11-18T07:10:01.328Z,19.30
2023-11-18T07:12:28.134Z,17.17
2023-11-18T07:14:55.128Z,17.17
2023-11-18T07:17:21.584Z,19.43
2023-11-18T07:19:48.060Z,15.55
2023-11-18T07:22:15.862Z,15.80
2023-11-18T07:24:42.274Z,16.70
2023-11-18T07:27:12.344Z,17.42
2023-11-18T07:29:38.791Z,17.83
2023-11-18T07:32:06.755Z,15.68
2023-11-18T07:34:36.582Z,17.25
2023-11-18T07:37:03.247Z,17.83
2023-11-18T07:39:45.098Z,17.63
2023-11-18T07:42:12.874Z,16.70
2023-11-18T07:44:42.427Z,16.05
2023-11-18T07:47:08.935Z,16.35
2023-11-18T07:49:36.676Z,17.98
2023-11-18T07:52:04.200Z,19.17
2023-11-18T07:54:30.777Z,15.13
2023-11-18T07:56:58.308Z,18.95
2023-11-18T07:59:25.090Z,17.48
2023-11-18T08:01:51.730Z,15.02
2023-11-18T08:04:21.890Z,20.33
2023-11-18T08:06:49.040Z,22.30
2023-11-18T08:09:15.803Z,17.85
2023-11-18T08:11:42.384Z,17.45
2023-11-18T08:14:09.244Z,18.88
2023-11-18T08:16:35.795Z,17.17
2023-11-18T08:19:06.974Z,14.40
2023-11-18T08:21:34.396Z,13.95
2023-11-18T08:24:01.393Z,17.02
2023-11-18T08:26:27.842Z,18.17
2023-11-18T08:28:54.736Z,13.98
2023-11-18T08:31:22.270Z,15.20
2023-11-18T08:33:48.835Z,13.75
2023-11-18T08:36:15.336Z,12.02
2023-11-18T08:38:45.108Z,11.80
2023-11-18T08:41:12.494Z,14.18
2023-11-18T08:43:42.024Z,10.40
2023-11-18T08:46:08.679Z,14.35
2023-11-18T08:48:35.293Z,9.98
2023-11-18T08:51:02.693Z,14.68
2023-11-18T08:53:29.143Z,12.25
2023-11-18T08:55:56.139Z,10.57
2023-11-18T08:58:23.779Z,10.52
2023-11-18T09:00:56.025Z,11.32
2023-11-18T09:03:36.045Z,11.77
2023-11-18T09:06:18.401Z,11.57
2023-11-18T09:08:46.971Z,10.07
2023-11-18T09:11:21.042Z,13.05
2023-11-18T09:13:50.834Z,9.80
2023-11-18T09:16:17.407Z,10.07
2023-11-18T09:18:47.763Z,11.57
2023-11-18T09:21:20.481Z,7.80
2023-11-18T09:23:49.019Z,10.55
2023-11-18T09:26:16.252Z,8.93
2023-11-18T09:28:43.430Z,12.15
2023-11-18T09:31:13.182Z,11.05
2023-11-18T09:33:45.971Z,8.17
2023-11-18T09:36:13.590Z,7.88
2023-11-18T09:38:45.993Z,9.65
2023-11-18T09:41:14.285Z,10.23
2023-11-18T09:43:48.235Z,10.38
2023-11-18T09:46:16.858Z,13.83
2023-11-18T09:48:48.668Z,9.27
2023-11-18T09:51:22.176Z,10.32
2023-11-18T09:53:51.643Z,10.73
2023-11-18T09:56:39.743Z,8.82
2023-11-18T09:59:17.236Z,9.10
2023-11-18T10:01:47.975Z,7.97
2023-11-18T10:04:19.282Z,9.50
2023-11-18T10:06:48.163Z,9.30
2023-11-18T10:09:18.560Z,10.70
2023-11-18T10:11:48.033Z,7.50
2023-11-18T10:14:18.298Z,8.20
2023-11-18T10:16:48.972Z,11.68
2023-11-18T10:19:19.217Z,9.05
2023-11-18T10:21:49.661Z,8.90
2023-11-18T10:24:20.326Z,10.43
2023-11-18T10:26:55.429Z,9.23
2023-11-18T10:29:22.046Z,9.27
2023-11-18T10:31:48.604Z,8.63
2023-11-18T10:34:16.980Z,11.82
2023-11-18T10:37:01.191Z,8.43
2023-11-18T10:39:36.245Z,9.05
2023-11-18T10:42:04.206Z,9.50
2023-11-18T10:44:30.800Z,9.13
2023-11-18T10:46:59.873Z,9.43
2023-11-18T10:49:30.528Z,8.17
2023-11-18T10:52:03.486Z,7.22
2023-11-18T10:54:33.135Z,6.95
2023-11-18T10:57:08.335Z,8.63
2023-11-18T10:59:34.804Z,8.55
2023-11-18T11:02:02.809Z,8.70
2023-11-18T11:04:44.216Z,7.93
2023-11-18T11:07:12.103Z,9.05
2023-11-18T11:09:43.080Z,9.65
2023-11-18T11:12:17.855Z,8.38
2023-11-18T11:14:55.669Z,8.47
2023-11-18T11:17:32.001Z,7.65
2023-11-18T11:19:59.206Z,6.82
2023-11-18T11:22:36.334Z,6.47
2023-11-18T11:25:25.912Z,8.93
2023-11-18T11:28:03.221Z,6.43
2023-11-18T11:30:33.011Z,4.45
2023-11-18T11:33:43.133Z,7.95
2023-11-18T11:36:18.614Z,6.93
2023-11-18T11:38:47.709Z,6.53
2023-11-18T11:41:20.706Z,6.53
2023-11-18T11:43:49.312Z,5.45
2023-11-18T11:46:24.134Z,9.40
2023-11-18T11:48:54.308Z,5.63
2023-11-18T11:51:31.197Z,9.85
2023-11-18T11:54:20.055Z,4.90
2023-11-18T11:57:02.677Z,6.28
2023-11-18T11:59:53.996Z,6.53
2023-11-18T12:02:29.898Z,7.65
2023-11-18T12:04:59.393Z,7.45
2023-11-18T12:07:28.309Z,5.27
2023-11-18T12:09:59.270Z,4.45
2023-11-18T12:12:31.561Z,4.63
2023-11-18T12:15:13.486Z,5.18
2023-11-18T12:17:52.074Z,5.93
2023-11-18T12:20:43.740Z,7.70
2023-11-18T12:23:16.784Z,3.25
2023-11-18T12:25:44.103Z,5.43
2023-11-18T12:28:12.671Z,4.45
2023-11-18T12:30:42.484Z,5.68
2023-11-18T12:33:19.160Z,4.23
2023-11-18T12:35:51.734Z,5.68
2023-11-18T12:38:46.484Z,3.88
2023-11-18T12:41:41.001Z,6.05
2023-11-18T12:44:27.458Z,6.22
2023-11-18T12:47:16.408Z,5.47
2023-11-18T12:49:43.461Z,3.72
2023-11-18T12:52:12.261Z,4.93
2023-11-18T12:54:39.288Z,4.78
2023-11-18T12:57:08.092Z,3.47
2023-11-18T12:59:38.759Z,3.83
2023-11-18T13:02:09.272Z,2.90
2023-11-18T13:04:35.976Z,3.67
2023-11-18T13:07:04.399Z,4.72
2023-11-18T13:09:33.348Z,1.98
2023-11-18T13:12:05.885Z,5.20
2023-11-18T13:14:37.971Z,6.00
2023-11-18T13:17:09.850Z,4.00
2023-11-18T13:19:36.482Z,4.57
2023-11-18T13:22:09.977Z,3.53
2023-11-18T13:24:41.937Z,2.90
2023-11-18T13:27:10.237Z,4.60
2023-11-18T13:29:40.567Z,3.20
2023-11-18T13:32:08.284Z,1.88
2023-11-18T13:34:36.779Z,4.05
2023-11-18T13:37:04.286Z,1.67
2023-11-18T13:39:32.443Z,1.60
2023-11-18T13:42:00.036Z,1.70
2023-11-18T13:44:40.636Z,2.00
2023-11-18T13:47:07.090Z,2.95
2023-11-18T13:49:35.621Z,1.70
2023-11-18T13:52:03.098Z,2.38
2023-11-18T13:54:32.387Z,2.78
2023-11-18T13:57:06.885Z,2.38
2023-11-18T13:59:33.423Z,2.63
2023-11-18T14:02:03.359Z,1.40
2023-11-18T14:04:30.933Z,2.22
2023-11-18T14:07:06.577Z,3.10
2023-11-18T14:09:40.769Z,2.38
2023-11-18T14:12:09.649Z,1.33
2023-11-18T14:14:36.297Z,1.50
2023-11-18T14:17:02.886Z,0.98
2023-11-18T14:19:30.207Z,1.08
2023-11-18T14:21:57.052Z,1.65
2023-11-18T14:24:24.178Z,1.20
2023-11-18T14:26:51.452Z,1.43
2023-11-18T14:29:17.912Z,1.10
2023-11-18T14:31:46.055Z,1.00
2023-11-18T14:34:12.527Z,0.95
2023-11-18T14:36:39.540Z,0.80
2023-11-18T14:39:06.385Z,1.27
2023-11-18T14:41:32.904Z,2.05
2023-11-18T14:43:59.566Z,0.70
2023-11-18T14:46:26.070Z,0.90
2023-11-18T14:48:52.868Z,1.77
2023-11-18T14:51:19.394Z,1.67
2023-11-18T14:53:45.813Z,1.85
2023-11-18T14:56:12.428Z,2.38
2023-11-18T14:58:38.955Z,1.00
2023-11-18T15:01:08.041Z,1.00
2023-11-18T15:03:36.243Z,0.67
2023-11-18T15:06:03.185Z,1.35
2023-11-18T15:08:31.746Z,0.63
2023-11-18T15:11:01.985Z,0.85
2023-11-18T15:13:28.529Z,1.02
2023-11-18T15:15:56.077Z,0.90
2023-11-18T15:18:22.707Z,0.88
2023-11-18T15:20:50.087Z,0.60
2023-11-18T15:23:18.623Z,0.32
2023-11-18T15:25:45.681Z,1.17
2023-11-18T15:28:12.830Z,1.03
2023-11-18T15:30:40.600Z,0.73
2023-11-18T15:33:10.741Z,0.68
2023-11-18T15:35:42.326Z,1.10
2023-11-18T15:38:12.577Z,0.88
2023-11-18T15:40:39.063Z,1.90
2023-11-18T15:43:06.888Z,1.02
2023-11-18T15:45:36.444Z,1.00
2023-11-18T15:48:06.249Z,0.52
2023-11-18T15:50:33.346Z,0.40
2023-11-18T15:52:59.870Z,0.30
2023-11-18T15:55:26.397Z,0.82
2023-11-18T15:57:53.983Z,0.52
2023-11-18T16:00:23.017Z,0.38
2023-11-18T16:03:01.791Z,0.38
2023-11-18T16:05:34.301Z,0.60
2023-11-18T16:08:05.353Z,0.70
2023-11-18T16:10:32.487Z,0.52
2023-11-18T16:12:59.821Z,0.70
2023-11-18T16:15:28.396Z,0.65
2023-11-18T16:17:58.063Z,0.43
2023-11-18T16:20:28.276Z,0.50
2023-11-18T16:22:56.158Z,0.50
2023-11-18T16:25:25.037Z,1.98
2023-11-18T16:27:52.981Z,0.60
2023-11-18T16:30:25.625Z,0.80
2023-11-18T16:32:52.957Z,0.98
2023-11-18T16:35:21.223Z,0.63
2023-11-18T16:37:48.586Z,0.40
2023-11-18T16:40:15.940Z,1.15
2023-11-18T16:42:47.858Z,1.30
2023-11-18T16:45:15.963Z,0.80
2023-11-18T16:47:43.634Z,0.70
2023-11-18T16:50:15.249Z,0.80
2023-11-18T16:52:41.819Z,1.10
2023-11-18T16:55:12.979Z,1.47
2023-11-18T16:57:40.038Z,1.05
2023-11-18T17:00:18.512Z,1.40
2023-11-18T17:02:46.470Z,1.33
2023-11-18T17:05:13.372Z,1.42
2023-11-18T17:07:39.951Z,1.10
2023-11-18T17:10:12.390Z,0.85
2023-11-18T17:12:52.690Z,1.00
2023-11-18T17:15:19.645Z,1.17
2023-11-18T17:17:48.062Z,0.98
2023-11-18T17:20:16.136Z,1.03
2023-11-18T17:22:43.635Z,0.90
2023-11-18T17:25:16.783Z,1.08
2023-11-18T17:27:44.678Z,1.10
2023-11-18T17:30:19.035Z,0.70
2023-11-18T17:32:47.625Z,1.47
2023-11-18T17:35:15.985Z,1.30
2023-11-18T17:37:44.497Z,1.15
2023-11-18T17:40:12.215Z,1.10
2023-11-18T17:42:43.050Z,0.85
2023-11-18T17:45:10.943Z,1.30
2023-11-18T17:47:43.144Z,1.30
2023-11-18T17:50:15.282Z,1.15
2023-11-18T17:52:45.123Z,1.70
2023-11-18T17:55:18.624Z,1.20
2023-11-18T17:57:45.651Z,1.83
2023-11-18T18:00:13.936Z,1.50
2023-11-18T18:02:41.565Z,1.95
2023-11-18T18:05:09.403Z,1.73
2023-11-18T18:07:35.858Z,2.30
2023-11-18T18:10:02.670Z,3.77
2023-11-18T18:12:29.326Z,3.70
2023-11-18T18:14:56.822Z,2.53
2023-11-18T18:17:23.434Z,2.33
2023-11-18T18:19:49.944Z,3.67
2023-11-18T18:22:16.430Z,3.57
2023-11-18T18:24:43.108Z,3.47
2023-11-18T18:27:09.665Z,4.22
2023-11-18T18:29:36.263Z,4.72
2023-11-18T18:32:03.334Z,4.60
2023-11-18T18:34:31.463Z,4.60
2023-11-18T18:36:57.930Z,4.95
2023-11-18T18:39:25.449Z,4.90
2023-11-18T18:41:51.888Z,4.78
2023-11-18T18:44:18.810Z,4.85
2023-11-18T18:46:45.555Z,9.20
2023-11-18T18:49:12.480Z,4.60
2023-11-18T18:51:39.897Z,5.20
2023-11-18T18:54:06.397Z,6.07
2023-11-18T18:56:32.797Z,5.25
2023-11-18T18:58:59.495Z,5.83
2023-11-18T19:01:27.642Z,6.68
2023-11-18T19:03:54.458Z,7.82
2023-11-18T19:06:21.129Z,6.47
2023-11-18T19:08:47.645Z,7.28
2023-11-18T19:11:14.242Z,8.93
2023-11-18T19:13:42.436Z,5.32
2023-11-18T19:16:10.710Z,5.82
2023-11-18T19:18:38.308Z,5.72
2023-11-18T19:21:05.229Z,6.95
2023-11-18T19:23:31.770Z,6.97
2023-11-18T19:25:58.291Z,6.82
2023-11-18T19:28:24.797Z,6.60
2023-11-18T19:30:51.305Z,7.07
2023-11-18T19:33:17.826Z,6.45
2023-11-18T19:35:44.401Z,7.67
2023-11-18T19:38:10.888Z,6.50
2023-11-18T19:40:37.391Z,6.43
2023-11-18T19:43:03.871Z,7.25
2023-11-18T19:45:30.402Z,6.90
2023-11-18T19:47:56.951Z,10.90
2023-11-18T19:52:52.804Z,10.00
2023-11-18T19:55:19.816Z,9.02
2023-11-18T19:57:47.822Z,7.43
2023-11-18T20:00:18.154Z,8.57
2023-11-18T20:02:46.117Z,8.68
2023-11-18T20:05:13.877Z,9.75
2023-11-18T20:07:40.536Z,9.32
2023-11-18T20:10:09.299Z,8.63
2023-11-18T20:12:36.230Z,8.67
2023-11-18T20:15:03.320Z,9.73
2023-11-18T20:17:29.854Z,10.38
2023-11-18T20:19:56.298Z,9.25
2023-11-18T20:22:22.708Z,13.27
2023-11-18T20:24:49.293Z,10.50
2023-11-18T20:27:15.715Z,10.07
2023-11-18T20:29:42.182Z,10.10
2023-11-18T20:32:09.211Z,9.65
2023-11-18T20:34:35.858Z,11.10
2023-11-18T20:37:02.382Z,10.40
2023-11-18T20:39:28.939Z,9.15
2023-11-18T20:41:55.575Z,8.35
2023-11-18T20:44:22.445Z,9.68
2023-11-18T20:46:50.992Z,10.40
2023-11-18T20:49:18.631Z,10.27
2023-11-18T20:51:45.575Z,8.98
2023-11-18T20:54:12.044Z,10.85
2023-11-18T20:56:38.619Z,10.70
2023-11-18T20:59:05.236Z,11.43
2023-11-18T21:01:31.809Z,11.33
2023-11-18T21:03:58.372Z,9.63
2023-11-18T21:06:25.074Z,14.25
2023-11-18T21:08:51.633Z,11.10
2023-11-18T21:11:18.624Z,10.73
2023-11-18T21:13:45.148Z,9.27
2023-11-18T21:16:13.680Z,8.73
2023-11-18T21:18:40.144Z,12.07
2023-11-18T21:21:06.783Z,9.35
2023-11-18T21:23:33.223Z,11.00
2023-11-18T21:25:59.760Z,11.70
2023-11-18T21:28:26.257Z,12.80
2023-11-18T21:30:53.740Z,8.40
2023-11-18T21:33:22.271Z,10.55
2023-11-18T21:35:49.142Z,9.70
2023-11-18T21:38:15.808Z,9.70
2023-11-18T21:40:42.337Z,11.20
2023-11-18T21:43:09.225Z,10.32
2023-11-18T21:45:38.633Z,12.35
2023-11-18T21:48:06.038Z,10.13
2023-11-18T21:50:34.492Z,11.25
2023-11-18T21:53:02.892Z,9.18
2023-11-18T21:55:29.680Z,12.95
2023-11-18T21:57:56.147Z,10.55
2023-11-18T22:00:22.621Z,10.25
2023-11-18T22:02:49.306Z,9.63
2023-11-18T22:05:16.178Z,9.00
2023-11-18T22:07:43.109Z,11.18
2023-11-18T22:10:18.588Z,10.65
2023-11-18T22:12:45.760Z,10.23
2023-11-18T22:15:17.925Z,11.53
2023-11-18T22:17:45.035Z,9.93
2023-11-18T22:20:14.175Z,10.02
2023-11-18T22:22:42.104Z,8.65
2023-11-18T22:25:09.691Z,11.15
2023-11-18T22:27:41.045Z,9.70
2023-11-18T22:30:09.333Z,10.20
2023-11-18T22:32:38.911Z,11.52
2023-11-18T22:35:08.066Z,11.90
2023-11-18T22:37:35.851Z,6.15
2023-11-18T22:40:09.471Z,11.27
2023-11-18T22:42:38.019Z,11.50
2023-11-18T22:45:05.487Z,9.23
2023-11-18T22:47:32.062Z,11.48
2023-11-18T22:49:58.653Z,9.18
2023-11-18T22:52:26.860Z,12.80
2023-11-18T22:54:53.398Z,10.23
2023-11-18T22:57:20.474Z,11.65
2023-11-18T22:59:47.497Z,9.07
2023-11-18T23:02:17.252Z,8.73
2023-11-18T23:04:46.192Z,9.97
2023-11-18T23:07:13.241Z,10.68
2023-11-18T23:09:39.764Z,12.27
2023-11-18T23:12:07.221Z,9.23
2023-11-18T23:14:33.994Z,9.65
2023-11-18T23:17:08.143Z,13.13
2023-11-18T23:19:41.702Z,10.90
2023-11-18T23:22:14.775Z,7.82
2023-11-18T23:24:41.265Z,5.70
2023-11-18T23:27:08.104Z,9.02
2023-11-18T23:29:34.740Z,9.95
2023-11-18T23:32:01.382Z,8.48
2023-11-18T23:34:27.837Z,9.70
2023-11-18T23:36:54.426Z,7.88
2023-11-18T23:39:26.956Z,10.68
2023-11-18T23:41:53.555Z,10.98
2023-11-18T23:44:20.015Z,10.18
2023-11-18T23:46:46.518Z,6.20
2023-11-18T23:49:13.531Z,6.53
2023-11-18T23:51:40.147Z,13.80
2023-11-18T23:54:06.761Z,8.57
2023-11-18T23:56:33.239Z,7.95
2023-11-18T23:58:59.719Z,8.07
